Time;durP1;ratioP1;P1;durP2;ratioP2;P2;SDS_P1;SDS_P2;PMS_P1;PMS_P2;Temp;Humidity;BMP_temperature;BMP_pressure;BME280_temperature;BME280_humidity;BME280_pressure;Samples;Min_cycle;Max_cycle;Signal;HPM_P1;HPM_P2
2021/06/28 00:02:04;;;;;;;8.75;7.95;;;;;;;18.83;100.00;100868.72;4956374;28;20233;-73
2021/06/28 00:04:34;;;;;;;8.50;7.68;;;;;;;18.60;100.00;100872.69;4957576;28;20189;-74
2021/06/28 00:07:00;;;;;;;8.02;7.40;;;;;;;18.73;100.00;100862.69;4955914;28;20226;-74
2021/06/28 00:09:28;;;;;;;7.88;7.28;;;;;;;18.76;100.00;100867.56;4958453;28;20665;-74
2021/06/28 00:11:58;;;;;;;8.15;7.45;;;;;;;18.80;100.00;100876.78;4985622;28;20547;-74
2021/06/28 00:14:24;;;;;;;8.57;7.88;;;;;;;18.74;100.00;100872.59;4980110;28;20197;-73
2021/06/28 00:16:49;;;;;;;8.88;8.07;;;;;;;18.70;100.00;100877.09;4992621;28;20230;-74
2021/06/28 00:19:17;;;;;;;8.65;7.95;;;;;;;18.70;100.00;100875.16;4992598;28;20658;-73
2021/06/28 00:21:45;;;;;;;8.27;7.57;;;;;;;18.66;100.00;100881.59;5005160;28;20224;-74
2021/06/28 00:24:13;;;;;;;8.23;7.53;;;;;;;18.51;100.00;100876.53;4997807;28;20186;-73
2021/06/28 00:26:39;;;;;;;8.23;7.53;;;;;;;18.48;100.00;100879.13;4975232;28;20248;-75
2021/06/28 00:29:07;;;;;;;7.75;7.05;;;;;;;18.50;100.00;100874.94;4992549;28;20198;-74
2021/06/28 00:31:32;;;;;;;8.35;7.53;;;;;;;18.48;100.00;100863.44;4981849;28;20309;-74
2021/06/28 00:34:01;;;;;;;7.88;7.18;;;;;;;18.45;100.00;100866.03;4985493;28;20672;-74
2021/06/28 00:36:27;;;;;;;8.13;7.43;;;;;;;18.46;100.00;100862.94;5003170;28;20717;-73
2021/06/28 00:38:54;;;;;;;8.52;7.82;;;;;;;18.45;100.00;100866.81;4961775;28;20185;-74
2021/06/28 00:41:24;;;;;;;8.57;7.82;;;;;;;18.49;100.00;100867.81;4981976;28;20232;-74
2021/06/28 00:43:50;;;;;;;8.32;7.63;;;;;;;18.52;100.00;100867.97;4974208;28;20221;-74
2021/06/28 00:46:21;;;;;;;8.50;7.80;;;;;;;18.53;100.00;100863.28;5025646;28;20232;-73
2021/06/28 00:48:49;;;;;;;8.45;7.68;;;;;;;18.55;100.00;100866.53;4994025;28;20185;-73
2021/06/28 00:51:19;;;;;;;9.68;8.77;;;;;;;18.53;100.00;100866.88;4970850;28;20226;-77
2021/06/28 00:53:44;;;;;;;8.95;8.05;;;;;;;18.41;100.00;100871.34;4938477;28;20186;-73
2021/06/28 00:56:12;;;;;;;8.20;7.47;;;;;;;18.41;100.00;100870.53;4957756;28;20230;-73
2021/06/28 00:58:39;;;;;;;8.05;7.35;;;;;;;18.48;100.00;100866.19;4973908;28;20251;-73
2021/06/28 01:01:07;;;;;;;8.90;8.10;;;;;;;18.39;100.00;100867.31;4965509;28;20219;-73
2021/06/28 01:03:32;;;;;;;8.32;7.63;;;;;;;18.26;100.00;100868.19;4950662;29;20227;-73
2021/06/28 01:06:01;;;;;;;9.43;8.63;;;;;;;18.17;100.00;100865.41;4962268;28;20245;-73
2021/06/28 01:08:27;;;;;;;9.35;8.48;;;;;;;18.12;100.00;100865.53;4970261;28;20663;-76
2021/06/28 01:10:52;;;;;;;9.05;8.15;;;;;;;18.15;100.00;100866.88;4993864;28;20247;-74
2021/06/28 01:13:18;;;;;;;8.65;7.88;;;;;;;18.06;100.00;100856.91;4984808;28;20177;-74
2021/06/28 01:15:44;;;;;;;8.73;8.02;;;;;;;18.07;100.00;100858.53;4981300;28;20222;-74
2021/06/28 01:18:10;;;;;;;8.88;8.18;;;;;;;18.08;100.00;100862.91;4989348;28;20614;-73
2021/06/28 01:20:35;;;;;;;9.00;8.10;;;;;;;18.11;100.00;100859.56;4997129;28;20705;-72
2021/06/28 01:23:15;;;;;;;8.23;7.53;;;;;;;18.08;100.00;100862.91;4992599;28;20201;-76
2021/06/28 01:25:43;;;;;;;7.95;7.25;;;;;;;18.17;100.00;100854.41;4983842;28;20221;-73
2021/06/28 01:28:14;;;;;;;8.10;7.40;;;;;;;18.00;100.00;100866.41;4960231;28;20193;-75
2021/06/28 01:30:43;;;;;;;8.32;7.62;;;;;;;18.10;100.00;100853.25;4955530;28;1059544;-75
2021/06/28 01:33:11;;;;;;;8.15;7.45;;;;;;;18.11;100.00;100860.34;4993994;28;20181;-73
2021/06/28 01:35:40;;;;;;;8.23;7.53;;;;;;;18.23;100.00;100847.63;4982469;28;20226;-75
2021/06/28 01:38:11;;;;;;;8.65;7.85;;;;;;;18.19;100.00;100843.91;4939481;28;20757;-74
2021/06/28 01:40:39;;;;;;;8.77;7.97;;;;;;;18.21;100.00;100849.91;4964011;28;20228;-75
2021/06/28 01:43:05;;;;;;;8.60;7.80;;;;;;;18.21;100.00;100847.16;4985081;28;20589;-74
2021/06/28 01:45:31;;;;;;;8.27;7.57;;;;;;;18.20;100.00;100847.47;5002130;28;20233;-75
2021/06/28 01:47:59;;;;;;;8.57;7.78;;;;;;;18.10;100.00;100841.44;4954522;28;20186;-75
2021/06/28 01:50:33;;;;;;;8.63;7.82;;;;;;;18.08;100.00;100843.69;4960388;28;20217;-75
2021/06/28 01:53:03;;;;;;;8.52;7.72;;;;;;;18.11;100.00;100832.84;4993230;28;20185;-75
2021/06/28 01:55:32;;;;;;;9.10;8.30;;;;;;;18.19;100.00;100834.84;5007315;28;20217;-75
2021/06/28 01:58:00;;;;;;;9.05;8.25;;;;;;;18.06;100.00;100826.66;4966371;28;20240;-74
2021/06/28 02:00:33;;;;;;;8.73;7.93;;;;;;;18.21;100.00;100827.91;4974740;28;20693;-74
2021/06/28 02:03:12;;;;;;;8.63;7.85;;;;;;;18.19;100.00;100830.16;4993466;28;20213;-73
2021/06/28 02:05:46;;;;;;;9.23;8.32;;;;;;;18.27;100.00;100829.38;4989331;28;20225;-74
2021/06/28 02:08:13;;;;;;;8.77;7.88;;;;;;;18.31;100.00;100830.34;4973671;28;20185;-74
2021/06/28 02:10:42;;;;;;;8.15;7.45;;;;;;;18.34;100.00;100824.22;4989274;28;20225;-74
2021/06/28 02:13:10;;;;;;;8.55;7.78;;;;;;;18.40;100.00;100820.19;4978543;28;20237;-74
2021/06/28 02:15:41;;;;;;;8.68;7.88;;;;;;;18.49;100.00;100823.78;4957245;28;20236;-74
2021/06/28 02:18:06;;;;;;;8.68;7.97;;;;;;;18.59;100.00;100829.81;5010379;28;20296;-74
2021/06/28 02:20:34;;;;;;;9.20;8.40;;;;;;;18.57;100.00;100833.97;4992037;28;20216;-74
2021/06/28 02:23:23;;;;;;;9.27;8.48;;;;;;;18.72;100.00;100825.31;4974146;28;20715;-74
2021/06/28 02:25:56;;;;;;;9.10;8.30;;;;;;;18.82;100.00;100825.78;4974700;28;20251;-74
2021/06/28 02:28:27;;;;;;;8.95;8.05;;;;;;;18.84;100.00;100822.72;4957474;28;20709;-73
2021/06/28 02:30:58;;;;;;;8.75;7.95;;;;;;;18.88;100.00;100826.44;4974070;28;20225;-74
2021/06/28 02:33:23;;;;;;;8.82;8.07;;;;;;;18.93;100.00;100830.66;4993515;28;20178;-73
2021/06/28 02:35:52;;;;;;;9.40;8.50;;;;;;;18.99;100.00;100832.16;4993027;28;20228;-73
2021/06/28 02:38:18;;;;;;;8.57;7.75;;;;;;;19.04;100.00;100828.44;4973196;28;20668;-76
2021/06/28 02:40:45;;;;;;;8.23;7.43;;;;;;;19.10;100.00;100835.38;4973552;28;20218;-73
2021/06/28 02:43:11;;;;;;;8.27;7.57;;;;;;;19.15;100.00;100833.28;4979378;28;20218;-75
2021/06/28 02:45:39;;;;;;;8.15;7.45;;;;;;;19.22;100.00;100833.63;4941599;28;20233;-74
2021/06/28 02:48:06;;;;;;;8.05;7.35;;;;;;;19.19;100.00;100836.22;4958716;28;20201;-74
2021/06/28 02:50:33;;;;;;;8.60;7.90;;;;;;;19.19;100.00;100839.75;4957040;28;20645;-73
2021/06/28 02:53:01;;;;;;;9.18;8.20;;;;;;;19.23;100.00;100846.28;4990598;28;20185;-74
2021/06/28 02:55:27;;;;;;;8.63;7.82;;;;;;;19.33;100.00;100845.94;4994839;28;20237;-73
2021/06/28 02:57:52;;;;;;;8.88;8.00;;;;;;;19.30;100.00;100846.56;4971567;28;20178;-74
2021/06/28 03:00:21;;;;;;;8.40;7.70;;;;;;;19.23;100.00;100846.28;4957072;28;20194;-73
2021/06/28 03:02:49;;;;;;;9.15;7.85;;;;;;;19.25;100.00;100841.25;4968897;28;20220;-73
2021/06/28 03:05:17;;;;;;;8.75;7.93;;;;;;;19.43;100.00;100834.56;4995850;28;20200;-73
2021/06/28 03:07:43;;;;;;;8.10;7.40;;;;;;;19.42;100.00;100844.00;4982387;28;20190;-74
2021/06/28 03:10:13;;;;;;;8.45;7.75;;;;;;;19.52;100.00;100829.84;4974151;28;20413;-72
2021/06/28 03:12:41;;;;;;;8.18;7.38;;;;;;;19.52;100.00;100829.84;4991420;28;20188;-72
2021/06/28 03:15:11;;;;;;;8.80;7.97;;;;;;;19.56;100.00;100833.56;4984886;28;20710;-73
2021/06/28 03:17:37;;;;;;;8.25;7.47;;;;;;;19.61;100.00;100833.41;4960748;28;20671;-75
2021/06/28 03:20:13;;;;;;;8.68;7.88;;;;;;;19.57;100.00;100826.94;4973155;28;20329;-76
2021/06/28 03:22:41;;;;;;;8.32;7.63;;;;;;;19.63;100.00;100836.66;4960395;28;20259;-72
2021/06/28 03:25:07;;;;;;;9.73;7.70;;;;;;;19.65;100.00;100828.84;4984100;28;20205;-72
2021/06/28 03:27:33;;;;;;;8.57;7.72;;;;;;;19.69;100.00;100825.94;4983882;28;20189;-73
2021/06/28 03:30:01;;;;;;;8.77;7.97;;;;;;;19.70;100.00;100824.78;4975716;28;20256;-73
2021/06/28 03:32:27;;;;;;;8.32;7.53;;;;;;;19.67;100.00;100827.41;4991792;28;20221;-73
2021/06/28 03:34:53;;;;;;;9.00;8.20;;;;;;;19.65;100.00;100826.09;4976316;28;20190;-72
2021/06/28 03:37:21;;;;;;;8.57;7.88;;;;;;;19.70;100.00;100824.78;4976232;28;20236;-73
2021/06/28 03:39:47;;;;;;;8.70;8.00;;;;;;;19.83;100.00;100834.84;4985204;28;20194;-75
2021/06/28 03:42:12;;;;;;;8.32;7.63;;;;;;;19.79;100.00;100831.09;4975983;28;20605;-74
2021/06/28 03:44:40;;;;;;;8.52;7.50;;;;;;;19.83;100.00;100834.84;4978133;28;20180;-75
2021/06/28 03:47:06;;;;;;;8.50;7.70;;;;;;;19.81;100.00;100839.88;4994906;28;20248;-75
2021/06/28 03:49:37;;;;;;;8.32;7.53;;;;;;;19.92;100.00;100832.88;4992810;28;20293;-73
2021/06/28 03:52:03;;;;;;;8.38;7.63;;;;;;;19.94;100.00;100830.59;4973720;28;20233;-74
2021/06/28 03:54:29;;;;;;;8.02;7.32;;;;;;;19.91;100.00;100822.19;4988976;28;20190;-76
2021/06/28 03:56:55;;;;;;;7.47;6.88;;;;;;;19.91;100.00;100824.94;4975412;28;20268;-73
2021/06/28 03:59:23;;;;;;;8.00;7.20;;;;;;;19.93;100.00;100815.19;4976185;28;20689;-74
2021/06/28 04:01:49;;;;;;;7.60;6.95;;;;;;;19.92;100.00;100813.56;4977002;28;20222;-77
2021/06/28 04:04:14;;;;;;;7.68;7.07;;;;;;;19.91;100.00;100814.72;4978782;28;20261;-74
2021/06/28 04:06:42;;;;;;;8.30;7.50;;;;;;;19.94;100.00;100808.53;4965143;28;20658;-73
2021/06/28 04:09:10;;;;;;;7.60;7.00;;;;;;;20.06;100.00;100814.97;4958766;28;20224;-74
2021/06/28 04:11:36;;;;;;;7.65;7.05;;;;;;;20.07;100.00;100804.75;4970245;28;20226;-73
2021/06/28 04:14:01;;;;;;;7.97;7.25;;;;;;;20.10;100.00;100807.66;4954531;28;20189;-75
2021/06/28 04:16:27;;;;;;;8.10;7.40;;;;;;;20.09;100.00;100813.50;4940363;28;20717;-74
2021/06/28 04:18:53;;;;;;;8.05;7.35;;;;;;;20.19;100.00;100810.41;4944291;28;20665;-73
2021/06/28 04:21:18;;;;;;;7.50;6.80;;;;;;;20.17;100.00;100813.47;4920343;29;20290;-74
2021/06/28 04:23:44;;;;;;;7.75;7.05;;;;;;;20.12;100.00;100805.38;4931236;28;20218;-75
2021/06/28 04:26:10;;;;;;;7.43;6.82;;;;;;;20.12;100.00;100810.09;4923946;28;20230;-76
2021/06/28 04:28:36;;;;;;;7.90;7.13;;;;;;;20.18;100.00;100814.28;4939627;28;20750;-74
2021/06/28 04:31:04;;;;;;;7.07;6.43;;;;;;;20.17;100.00;100807.16;4934906;28;20233;-73
2021/06/28 04:33:32;;;;;;;7.63;6.82;;;;;;;20.13;100.00;100814.47;4921375;29;20588;-72
2021/06/28 04:36:00;;;;;;;8.38;7.53;;;;;;;20.11;100.00;100811.25;4936118;29;20227;-72
2021/06/28 04:38:26;;;;;;;7.47;6.78;;;;;;;20.16;100.00;100822.09;4940724;28;20286;-73
2021/06/28 04:40:52;;;;;;;7.68;7.03;;;;;;;20.14;100.00;100821.59;4954179;28;20763;-74
2021/06/28 04:43:18;;;;;;;7.00;6.40;;;;;;;20.10;100.00;100823.41;4927763;29;20210;-72
2021/06/28 04:45:46;;;;;;;8.13;7.43;;;;;;;20.23;100.00;100822.38;4925593;28;20726;-73
2021/06/28 04:48:12;;;;;;;7.72;7.03;;;;;;;20.22;100.00;100831.81;4955953;28;20202;-73
2021/06/28 04:50:37;;;;;;;7.93;7.22;;;;;;;20.31;100.00;100829.81;4943334;28;20221;-73
2021/06/28 04:53:08;;;;;;;7.88;7.18;;;;;;;20.31;100.00;100827.88;4976190;28;20174;-74
2021/06/28 04:55:34;;;;;;;7.10;6.40;;;;;;;20.35;100.00;100830.78;4989288;28;20229;-72
2021/06/28 04:58:00;;;;;;;7.47;6.88;;;;;;;20.30;100.00;100833.72;4954902;28;20245;-73
2021/06/28 05:00:26;;;;;;;7.82;6.75;;;;;;;20.36;100.00;100837.91;4990758;28;20272;-73
2021/06/28 05:02:52;;;;;;;7.10;6.50;;;;;;;20.34;100.00;100838.22;4994223;28;20205;-73
2021/06/28 05:05:17;;;;;;;7.50;6.82;;;;;;;20.43;100.00;100835.44;4972863;28;20698;-73
2021/06/28 05:07:43;;;;;;;7.10;6.50;;;;;;;20.43;100.00;100827.16;4938823;28;20201;-71
2021/06/28 05:10:09;;;;;;;7.10;6.50;;;;;;;20.50;100.00;100826.28;4983233;28;20188;-73
2021/06/28 05:12:37;;;;;;;7.47;6.78;;;;;;;20.43;100.00;100828.75;4983334;28;20289;-72
2021/06/28 05:15:08;;;;;;;7.43;6.82;;;;;;;20.62;100.00;100823.69;4973993;28;20564;-72
2021/06/28 05:17:34;;;;;;;7.55;6.85;;;;;;;20.72;100.00;100823.28;4974117;28;20239;-72
2021/06/28 05:20:00;;;;;;;7.65;6.95;;;;;;;20.69;100.00;100837.75;4985953;28;20223;-69
2021/06/28 05:22:26;;;;;;;6.95;6.28;;;;;;;20.75;100.00;100832.84;4993441;28;20225;-76
2021/06/28 05:24:52;;;;;;;7.38;6.70;;;;;;;20.82;100.00;100838.63;4979377;28;20194;-73
2021/06/28 05:27:17;;;;;;;6.72;6.13;;;;;;;20.83;100.00;100841.06;4966124;28;20222;-75
2021/06/28 05:29:45;;;;;;;7.40;6.68;;;;;;;20.67;100.00;100834.50;4967280;28;20185;-74
2021/06/28 05:32:11;;;;;;;6.75;6.22;;;;;;;20.70;100.00;100833.84;4988984;28;20614;-74
2021/06/28 05:34:41;;;;;;;7.30;6.63;;;;;;;20.86;100.00;100843.19;4981650;28;20278;-75
2021/06/28 05:37:11;;;;;;;6.75;6.18;;;;;;;20.90;100.00;100838.59;4968038;28;20260;-75
2021/06/28 05:39:42;;;;;;;7.55;6.75;;;;;;;20.87;100.00;100844.78;4962126;28;20673;-73
2021/06/28 05:42:09;;;;;;;7.05;6.45;;;;;;;20.92;100.00;100831.59;4981181;28;20221;-74
2021/06/28 05:44:37;;;;;;;7.00;6.30;;;;;;;20.81;100.00;100829.56;4982776;28;20731;-73
2021/06/28 05:47:03;;;;;;;6.82;6.22;;;;;;;20.92;100.00;100826.06;4938260;28;20222;-74
2021/06/28 05:49:31;;;;;;;7.18;6.50;;;;;;;20.86;98.92;100824.66;4947754;28;20707;-73
2021/06/28 05:51:59;;;;;;;6.35;5.85;;;;;;;20.95;99.02;100821.81;4988949;28;20225;-73
2021/06/28 05:54:25;;;;;;;6.55;5.88;;;;;;;20.93;100.00;100824.94;4986744;28;20217;-73
2021/06/28 05:56:50;;;;;;;6.32;5.82;;;;;;;20.98;100.00;100823.91;4968335;28;20245;-74
2021/06/28 05:59:18;;;;;;;6.38;5.75;;;;;;;21.00;99.25;100821.59;4975111;28;20185;-74
2021/06/28 06:01:44;;;;;;;5.75;5.25;;;;;;;21.01;98.45;100828.78;4990377;28;20229;-73
2021/06/28 06:04:14;;;;;;;6.28;5.68;;;;;;;21.11;98.02;100825.59;4974852;28;20220;-72
2021/06/28 06:06:45;;;;;;;6.28;5.78;;;;;;;21.06;97.89;100826.63;4973758;28;20225;-76
2021/06/28 06:09:11;;;;;;;6.88;6.18;;;;;;;21.20;98.10;100829.09;4974978;28;20202;-73
2021/06/28 06:11:39;;;;;;;6.07;5.57;;;;;;;21.30;97.79;100821.22;4990885;28;20243;-73
2021/06/28 06:14:07;;;;;;;6.65;6.03;;;;;;;21.39;97.64;100819.97;4987611;28;20196;-73
2021/06/28 06:16:32;;;;;;;6.07;5.57;;;;;;;21.43;97.55;100818.19;4973241;28;20226;-71
2021/06/28 06:19:03;;;;;;;6.38;5.88;;;;;;;21.51;97.61;100808.97;4956286;28;20546;-73
2021/06/28 06:21:33;;;;;;;6.90;6.30;;;;;;;21.69;96.07;100818.72;4975362;28;20217;-74
2021/06/28 06:24:01;;;;;;;6.25;5.75;;;;;;;21.76;95.77;100819.00;4998029;28;20303;-73
2021/06/28 06:26:29;;;;;;;6.50;5.90;;;;;;;21.70;94.17;100831.41;4981407;28;20260;-72
2021/06/28 06:28:55;;;;;;;6.60;6.10;;;;;;;21.79;93.99;100818.28;4961665;28;20185;-73
2021/06/28 06:31:20;;;;;;;6.68;6.18;;;;;;;22.02;92.79;100832.19;4979231;28;20725;-75
2021/06/28 06:33:46;;;;;;;6.90;6.30;;;;;;;22.03;91.82;100825.50;4997213;28;20188;-74
2021/06/28 06:36:14;;;;;;;6.55;5.95;;;;;;;21.93;93.06;100836.19;4999888;28;20710;-73
2021/06/28 06:38:43;;;;;;;6.60;6.00;;;;;;;22.06;92.51;100838.63;4974364;28;20201;-73
2021/06/28 06:41:09;;;;;;;6.75;6.15;;;;;;;22.05;92.94;100839.81;4999692;28;20225;-73
2021/06/28 06:43:34;;;;;;;6.75;6.15;;;;;;;22.38;90.98;100836.97;4975181;28;20574;-73
2021/06/28 06:46:02;;;;;;;6.15;5.65;;;;;;;22.39;90.11;100831.91;5002103;28;20672;-73
2021/06/28 06:48:28;;;;;;;6.97;6.35;;;;;;;22.47;90.04;100836.53;4997502;28;20188;-74
2021/06/28 06:50:56;;;;;;;7.20;6.47;;;;;;;22.46;90.06;100839.66;4983990;28;20250;-73
2021/06/28 06:53:22;;;;;;;7.00;6.40;;;;;;;22.64;90.23;100841.84;4957755;28;20228;-74
2021/06/28 06:55:50;;;;;;;7.13;6.43;;;;;;;22.57;88.91;100843.56;4969024;28;20270;-74
2021/06/28 06:58:16;;;;;;;6.57;5.97;;;;;;;22.74;88.90;100846.09;4979062;28;20230;-73
2021/06/28 07:00:42;;;;;;;7.78;6.00;;;;;;;22.63;89.61;100839.41;4971109;28;20635;-73
2021/06/28 07:03:12;;;;;;;7.15;6.10;;;;;;;22.90;88.75;100850.63;4940522;29;20223;-73
2021/06/28 07:05:38;;;;;;;6.45;5.85;;;;;;;22.97;89.28;100857.19;4929954;28;20364;-74
2021/06/28 07:08:04;;;;;;;6.50;5.90;;;;;;;23.07;85.75;100853.91;4993316;28;20240;-74
2021/06/28 07:10:29;;;;;;;6.28;5.78;;;;;;;23.18;85.87;100846.75;4977378;28;20275;-75
2021/06/28 07:12:55;;;;;;;7.03;5.93;;;;;;;23.29;85.15;100853.41;4992981;28;20186;-73
2021/06/28 07:15:25;;;;;;;6.43;5.82;;;;;;;23.47;83.43;100854.75;4976484;28;20699;-73
2021/06/28 07:17:53;;;;;;;6.20;5.60;;;;;;;23.45;84.50;100857.06;4979367;28;20197;-73
2021/06/28 07:20:21;;;;;;;6.38;5.80;;;;;;;23.52;84.84;100857.28;4975772;28;20592;-73
2021/06/28 07:22:47;;;;;;;6.68;6.18;;;;;;;23.45;85.13;100857.88;4996046;28;20332;-74
2021/06/28 07:25:17;;;;;;;6.38;5.78;;;;;;;23.51;85.78;100861.19;5012948;28;20679;-74
2021/06/28 07:27:43;;;;;;;6.43;5.93;;;;;;;23.44;84.93;100855.44;4978181;28;20220;-74
2021/06/28 07:30:10;;;;;;;6.00;5.50;;;;;;;23.40;84.24;100854.53;4974077;28;20185;-74
2021/06/28 07:32:37;;;;;;;6.10;5.60;;;;;;;23.37;85.28;100855.22;4973230;28;20202;-74
2021/06/28 07:35:06;;;;;;;6.28;5.78;;;;;;;23.40;86.63;100848.97;4941405;28;20187;-74
2021/06/28 07:37:34;;;;;;;6.22;5.72;;;;;;;23.48;85.13;100845.25;4951017;28;20221;-74
2021/06/28 07:40:00;;;;;;;7.53;6.30;;;;;;;23.46;85.32;100847.56;4960217;28;20174;-74
2021/06/28 07:42:25;;;;;;;6.38;5.70;;;;;;;23.51;85.82;100850.09;4983694;28;20232;-74
2021/06/28 07:44:56;;;;;;;6.05;5.45;;;;;;;23.37;87.14;100844.13;4960518;28;20213;-75
2021/06/28 07:47:25;;;;;;;6.97;6.28;;;;;;;23.24;87.15;100842.56;4977611;28;20360;-75
2021/06/28 07:49:53;;;;;;;6.22;5.63;;;;;;;23.45;86.82;100837.66;4956921;28;20194;-76
2021/06/28 07:52:18;;;;;;;6.95;6.30;;;;;;;23.40;87.02;100832.34;4961904;28;20224;-74
2021/06/28 07:54:45;;;;;;;6.53;5.88;;;;;;;23.56;87.99;100842.34;4995485;28;20232;-74
2021/06/28 07:57:12;;;;;;;6.65;6.05;;;;;;;23.40;88.88;100832.34;5003865;28;20299;-74
2021/06/28 07:59:38;;;;;;;6.07;5.47;;;;;;;23.60;88.22;100832.97;4978508;28;20668;-73
2021/06/28 08:02:05;;;;;;;6.32;5.82;;;;;;;23.86;86.35;100830.53;4975967;28;20245;-73
2021/06/28 08:04:30;;;;;;;6.65;6.05;;;;;;;23.73;87.43;100819.84;4945395;28;20230;-73
2021/06/28 08:06:59;;;;;;;6.47;5.97;;;;;;;23.83;85.94;100814.59;4955528;28;20209;-74
2021/06/28 08:09:25;;;;;;;6.20;5.80;;;;;;;23.77;86.32;100816.03;4996842;28;20627;-75
2021/06/28 08:11:57;;;;;;;6.28;5.78;;;;;;;23.63;86.78;100821.16;4992285;28;20368;-74
2021/06/28 08:14:22;;;;;;;6.40;5.90;;;;;;;23.97;85.31;100814.97;4991728;28;20185;-74
2021/06/28 08:16:50;;;;;;;6.25;5.75;;;;;;;24.37;82.61;100803.34;4988154;28;20276;-76
2021/06/28 08:19:16;;;;;;;6.20;5.70;;;;;;;24.15;83.26;100805.13;4957322;28;20190;-74
2021/06/28 08:21:43;;;;;;;5.85;5.35;;;;;;;24.53;81.93;100800.56;4962216;28;20221;-74
2021/06/28 08:24:11;;;;;;;6.13;5.63;;;;;;;24.98;80.21;100801.63;4997031;28;20221;-73
2021/06/28 08:26:39;;;;;;;6.07;5.53;;;;;;;25.10;79.70;100807.09;4973441;28;20237;-73
2021/06/28 08:29:10;;;;;;;6.00;5.60;;;;;;;25.45;78.04;100801.06;4977161;28;20186;-74
2021/06/28 08:31:39;;;;;;;6.03;5.53;;;;;;;25.65;78.25;100808.28;4959941;28;20253;-76
2021/06/28 08:34:07;;;;;;;5.50;5.10;;;;;;;25.48;75.45;100805.91;4976566;28;20216;-75
2021/06/28 08:36:34;;;;;;;6.32;5.82;;;;;;;25.78;73.87;100793.00;4977340;28;20326;-74
2021/06/28 08:39:05;;;;;;;5.93;5.43;;;;;;;25.98;73.66;100804.53;4981295;28;20185;-74
2021/06/28 08:41:31;;;;;;;5.88;5.28;;;;;;;26.09;73.79;100797.16;4992310;28;20221;-74
2021/06/28 08:43:59;;;;;;;6.05;5.47;;;;;;;26.12;73.75;100790.88;4963741;28;20570;-74
2021/06/28 08:46:25;;;;;;;5.50;5.10;;;;;;;26.44;71.51;100789.44;4957065;28;20229;-73
2021/06/28 08:48:50;;;;;;;6.25;5.65;;;;;;;26.69;70.08;100791.44;4957157;28;20197;-73
2021/06/28 08:51:20;;;;;;;6.00;5.50;;;;;;;26.64;68.96;100788.16;4951964;28;20237;-73
2021/06/28 08:53:52;;;;;;;5.55;5.10;;;;;;;27.10;68.40;100788.47;4966515;28;20244;-73
2021/06/28 08:56:20;;;;;;;5.50;5.10;;;;;;;26.55;64.14;100785.63;4980035;28;20229;-73
2021/06/28 08:58:46;;;;;;;5.45;5.03;;;;;;;27.07;63.31;100786.44;4991094;28;20181;-74
2021/06/28 09:01:12;;;;;;;5.32;4.85;;;;;;;27.20;65.16;100782.25;4973877;28;20232;-74
2021/06/28 09:03:37;;;;;;;4.93;4.53;;;;;;;27.00;63.83;100791.94;5004774;28;20219;-72
2021/06/28 09:06:07;;;;;;;5.07;4.68;;;;;;;27.28;60.20;100786.72;4994856;28;20236;-74
2021/06/28 09:08:34;;;;;;;5.22;4.82;;;;;;;27.48;61.40;100790.97;4984412;28;20201;-73
2021/06/28 09:11:02;;;;;;;4.50;4.20;;;;;;;27.48;61.04;100782.63;4979679;28;20237;-75
2021/06/28 09:13:42;;;;;;;5.05;4.50;;;;;;;27.48;61.34;100779.81;4979871;28;20217;-73
2021/06/28 09:16:37;;;;;;;4.53;4.20;;;;;;;27.48;60.48;100778.63;4955344;28;20284;-73
2021/06/28 09:19:09;;;;;;;4.60;4.18;;;;;;;27.71;59.03;100781.25;5000093;28;20232;-73
2021/06/28 09:21:40;;;;;;;3.90;3.47;;;;;;;27.75;56.11;100777.34;4992763;28;20777;-73
2021/06/28 09:24:36;;;;;;;4.10;3.80;;;;;;;28.11;54.91;100782.09;4977328;28;20643;-74
2021/06/28 09:27:11;;;;;;;3.97;3.67;;;;;;;28.02;54.43;100781.63;4965047;28;20240;-73
2021/06/28 09:29:56;;;;;;;3.65;3.35;;;;;;;28.46;55.79;100777.59;4998598;28;20295;-75
2021/06/28 09:32:22;;;;;;;4.05;3.75;;;;;;;28.58;54.51;100786.50;4967652;28;20226;-74
2021/06/28 09:34:51;;;;;;;3.53;3.15;;;;;;;28.74;50.47;100784.25;4957105;28;20638;-74
2021/06/28 09:37:21;;;;;;;3.45;3.17;;;;;;;28.75;50.78;100791.44;4975837;28;20621;-74
2021/06/28 09:39:58;;;;;;;3.30;3.10;;;;;;;29.09;50.24;100786.03;4977163;28;20208;-77
2021/06/28 09:42:28;;;;;;;3.10;2.90;;;;;;;29.00;48.06;100782.00;4982463;28;20233;-74
2021/06/28 09:44:55;;;;;;;3.35;3.10;;;;;;;28.91;47.53;100777.94;4974059;28;20182;-74
2021/06/28 09:47:24;;;;;;;3.20;3.00;;;;;;;28.88;46.44;100775.94;4954462;28;20246;-73
2021/06/28 09:50:20;;;;;;;3.20;3.00;;;;;;;29.02;48.53;100779.59;4986522;28;20231;-73
2021/06/28 09:52:52;;;;;;;3.10;2.90;;;;;;;29.29;47.62;100775.38;4992877;28;20248;-73
2021/06/28 09:55:33;;;;;;;4.28;3.10;;;;;;;29.23;46.73;100780.56;4971344;28;20214;-75
2021/06/28 09:58:13;;;;;;;3.38;3.17;;;;;;;28.86;46.26;100773.50;4973297;28;20272;-74
2021/06/28 10:00:40;;;;;;;3.40;3.15;;;;;;;29.18;47.87;100771.72;4988864;28;20228;-74
2021/06/28 10:03:32;;;;;;;4.35;3.53;;;;;;;28.89;46.45;100777.53;4974263;28;20217;-74
2021/06/28 10:06:14;;;;;;;8.23;3.17;;;;;;;28.80;45.37;100777.09;4975348;28;20255;-75
2021/06/28 10:08:45;;;;;;;3.97;3.30;;;;;;;28.90;45.71;100779.13;4979282;28;20584;-74
2021/06/28 10:11:10;;;;;;;4.05;3.70;;;;;;;29.16;44.68;100776.91;4993272;28;20239;-74
2021/06/28 10:13:36;;;;;;;6.32;3.30;;;;;;;29.29;45.37;100778.19;4977217;28;20181;-75
2021/06/28 10:16:04;;;;;;;3.90;3.60;;;;;;;29.68;45.34;100777.91;4958272;28;20287;-76
2021/06/28 10:18:32;;;;;;;4.28;3.65;;;;;;;29.91;46.64;100779.19;4976257;28;20173;-76
2021/06/28 10:21:00;;;;;;;3.40;3.20;;;;;;;30.06;42.37;100766.00;5006462;28;20728;-74
2021/06/28 10:23:28;;;;;;;4.57;3.92;;;;;;;30.28;41.88;100768.44;4990942;28;20213;-76
2021/06/28 10:25:56;;;;;;;3.60;3.30;;;;;;;29.96;42.92;100773.22;4977808;28;20712;-75
2021/06/28 10:28:21;;;;;;;3.95;3.65;;;;;;;30.20;43.33;100774.41;4958760;28;20186;-75
2021/06/28 10:30:52;;;;;;;3.65;3.35;;;;;;;30.15;42.12;100767.22;4972512;28;20598;-75
2021/06/28 10:33:17;;;;;;;3.80;3.60;;;;;;;30.05;41.86;100767.19;4976232;28;20182;-74
2021/06/28 10:35:43;;;;;;;4.78;3.65;;;;;;;30.30;42.87;100768.84;4991796;28;20248;-75
2021/06/28 10:38:16;;;;;;;3.85;3.47;;;;;;;30.44;43.84;100763.22;4994260;28;20192;-75
2021/06/28 10:40:55;;;;;;;3.35;3.15;;;;;;;29.96;38.98;100764.78;4978643;28;20318;-75
2021/06/28 10:43:24;;;;;;;3.45;3.20;;;;;;;30.37;39.51;100761.22;4986172;28;20756;-75
2021/06/28 10:45:53;;;;;;;3.50;3.20;;;;;;;30.32;40.76;100761.63;4974024;28;20770;-76
2021/06/28 10:48:21;;;;;;;3.33;3.03;;;;;;;30.68;39.39;100752.78;4939232;28;20183;-76
2021/06/28 10:51:00;;;;;;;3.10;2.80;;;;;;;31.20;41.22;100760.25;4969267;28;20267;-74
2021/06/28 10:53:55;;;;;;;3.30;3.10;;;;;;;31.33;37.50;100761.44;4995775;28;20272;-75
2021/06/28 10:56:30;;;;;;;3.22;2.50;;;;;;;31.47;37.38;100756.56;4969922;28;20237;-75
2021/06/28 10:59:02;;;;;;;2.65;2.50;;;;;;;31.68;36.60;100754.41;4974873;28;20185;-76
2021/06/28 11:01:41;;;;;;;2.70;2.50;;;;;;;31.24;37.97;100755.44;4974025;28;20226;-76
2021/06/28 11:04:10;;;;;;;2.65;2.40;;;;;;;31.42;37.08;100749.34;4974198;28;20209;-76
2021/06/28 11:06:56;;;;;;;3.03;2.83;;;;;;;31.42;37.89;100748.56;4996702;28;20240;-75
2021/06/28 11:09:48;;;;;;;2.78;2.30;;;;;;;31.87;34.18;100743.50;4998841;28;20592;-76
2021/06/28 11:12:28;;;;;;;2.40;2.28;;;;;;;31.64;32.65;100750.84;4986151;28;20222;-74
2021/06/28 11:14:56;;;;;;;2.80;2.60;;;;;;;31.47;35.89;100739.69;4988872;28;20570;-76
2021/06/28 11:17:25;;;;;;;2.72;2.53;;;;;;;31.34;35.46;100748.97;4958056;28;20240;-74
2021/06/28 11:19:55;;;;;;;2.58;2.38;;;;;;;31.55;34.58;100742.03;4949107;28;20185;-79
2021/06/28 11:22:31;;;;;;;2.67;2.47;;;;;;;31.82;34.89;100740.28;4997035;28;20220;-76
2021/06/28 11:25:02;;;;;;;2.88;2.67;;;;;;;31.93;34.41;100729.78;4980377;28;20189;-74
2021/06/28 11:27:30;;;;;;;3.45;2.78;;;;;;;31.84;35.00;100735.03;4982878;28;20252;-76
2021/06/28 11:29:58;;;;;;;2.92;2.72;;;;;;;31.61;34.99;100731.19;4978258;28;20571;-75